sensor_id;sensor_type;location;lat;lon;timestamp;P1;durP1;ratioP1;P2;durP2;ratioP2
59147;SDS011;44930;52.878;6.168;2022-09-09T00:01:15;8.57;;;5.75;;
59147;SDS011;44930;52.878;6.168;2022-09-09T00:07:03;9.85;;;6.40;;
59147;SDS011;44930;52.878;6.168;2022-09-09T00:09:35;11.07;;;6.35;;
59147;SDS011;44930;52.878;6.168;2022-09-09T00:12:11;10.35;;;6.90;;
59147;SDS011;44930;52.878;6.168;2022-09-09T00:17:38;14.55;;;6.78;;
59147;SDS011;44930;52.878;6.168;2022-09-09T00:20:12;9.70;;;6.82;;
59147;SDS011;44930;52.878;6.168;2022-09-09T00:22:52;7.68;;;6.50;;
59147;SDS011;44930;52.878;6.168;2022-09-09T00:25:46;9.70;;;6.13;;
59147;SDS011;44930;52.878;6.168;2022-09-09T00:28:20;10.90;;;7.18;;
59147;SDS011;44930;52.878;6.168;2022-09-09T00:30:49;8.60;;;5.78;;
59147;SDS011;44930;52.878;6.168;2022-09-09T00:33:16;11.70;;;6.68;;
59147;SDS011;44930;52.878;6.168;2022-09-09T00:35:54;12.60;;;6.35;;
59147;SDS011;44930;52.878;6.168;2022-09-09T00:38:33;9.68;;;6.32;;
59147;SDS011;44930;52.878;6.168;2022-09-09T00:44:32;8.90;;;6.03;;
59147;SDS011;44930;52.878;6.168;2022-09-09T00:47:17;8.45;;;5.90;;
59147;SDS011;44930;52.878;6.168;2022-09-09T00:56:09;11.48;;;6.90;;
59147;SDS011;44930;52.878;6.168;2022-09-09T00:58:50;12.05;;;7.55;;
59147;SDS011;44930;52.878;6.168;2022-09-09T01:01:23;13.13;;;7.30;;
59147;SDS011;44930;52.878;6.168;2022-09-09T01:03:52;10.48;;;7.55;;
59147;SDS011;44930;52.878;6.168;2022-09-09T01:09:22;15.25;;;8.23;;
59147;SDS011;44930;52.878;6.168;2022-09-09T01:14:51;11.90;;;7.82;;
59147;SDS011;44930;52.878;6.168;2022-09-09T01:17:46;14.25;;;7.88;;
59147;SDS011;44930;52.878;6.168;2022-09-09T01:20:23;12.27;;;8.45;;
59147;SDS011;44930;52.878;6.168;2022-09-09T01:26:02;9.80;;;8.20;;
59147;SDS011;44930;52.878;6.168;2022-09-09T01:28:35;15.68;;;8.23;;
59147;SDS011;44930;52.878;6.168;2022-09-09T01:31:03;13.10;;;8.40;;
59147;SDS011;44930;52.878;6.168;2022-09-09T01:33:31;10.65;;;7.68;;
59147;SDS011;44930;52.878;6.168;2022-09-09T01:38:37;10.15;;;8.02;;
59147;SDS011;44930;52.878;6.168;2022-09-09T01:41:03;11.95;;;8.02;;
59147;SDS011;44930;52.878;6.168;2022-09-09T01:43:29;11.27;;;8.68;;
59147;SDS011;44930;52.878;6.168;2022-09-09T01:45:55;13.00;;;9.05;;
59147;SDS011;44930;52.878;6.168;2022-09-09T01:48:24;11.85;;;7.78;;
59147;SDS011;44930;52.878;6.168;2022-09-09T01:50:50;14.68;;;8.15;;
59147;SDS011;44930;52.878;6.168;2022-09-09T01:53:16;12.35;;;9.25;;
59147;SDS011;44930;52.878;6.168;2022-09-09T01:55:45;12.95;;;8.88;;
59147;SDS011;44930;52.878;6.168;2022-09-09T02:00:48;12.13;;;7.88;;
59147;SDS011;44930;52.878;6.168;2022-09-09T02:03:25;13.45;;;8.77;;
59147;SDS011;44930;52.878;6.168;2022-09-09T02:08:35;9.25;;;7.80;;
59147;SDS011;44930;52.878;6.168;2022-09-09T02:11:11;12.43;;;7.70;;
59147;SDS011;44930;52.878;6.168;2022-09-09T02:13:39;11.20;;;8.07;;
59147;SDS011;44930;52.878;6.168;2022-09-09T02:18:42;11.52;;;8.80;;
59147;SDS011;44930;52.878;6.168;2022-09-09T02:21:13;14.82;;;9.25;;
59147;SDS011;44930;52.878;6.168;2022-09-09T02:23:42;14.23;;;8.80;;
59147;SDS011;44930;52.878;6.168;2022-09-09T02:26:10;10.52;;;8.57;;
59147;SDS011;44930;52.878;6.168;2022-09-09T02:28:39;12.18;;;8.60;;
59147;SDS011;44930;52.878;6.168;2022-09-09T02:31:07;12.70;;;8.23;;
59147;SDS011;44930;52.878;6.168;2022-09-09T02:33:37;18.63;;;9.13;;
59147;SDS011;44930;52.878;6.168;2022-09-09T02:36:08;13.35;;;8.55;;
59147;SDS011;44930;52.878;6.168;2022-09-09T02:38:38;13.10;;;8.75;;
59147;SDS011;44930;52.878;6.168;2022-09-09T02:43:55;12.98;;;7.43;;
59147;SDS011;44930;52.878;6.168;2022-09-09T02:54:41;11.70;;;6.65;;
59147;SDS011;44930;52.878;6.168;2022-09-09T02:57:19;10.35;;;7.47;;
59147;SDS011;44930;52.878;6.168;2022-09-09T02:59:51;12.50;;;6.70;;
59147;SDS011;44930;52.878;6.168;2022-09-09T03:02:17;12.48;;;7.05;;
59147;SDS011;44930;52.878;6.168;2022-09-09T03:04:43;10.05;;;6.22;;
59147;SDS011;44930;52.878;6.168;2022-09-09T03:07:10;10.35;;;6.85;;
59147;SDS011;44930;52.878;6.168;2022-09-09T03:09:37;10.18;;;6.10;;
59147;SDS011;44930;52.878;6.168;2022-09-09T03:12:02;10.20;;;7.05;;
59147;SDS011;44930;52.878;6.168;2022-09-09T03:14:32;11.07;;;5.68;;
59147;SDS011;44930;52.878;6.168;2022-09-09T03:16:57;10.30;;;6.75;;
59147;SDS011;44930;52.878;6.168;2022-09-09T03:19:25;12.15;;;6.40;;
59147;SDS011;44930;52.878;6.168;2022-09-09T03:21:52;8.68;;;6.80;;
59147;SDS011;44930;52.878;6.168;2022-09-09T03:24:18;10.55;;;7.13;;
59147;SDS011;44930;52.878;6.168;2022-09-09T03:26:44;10.82;;;6.63;;
59147;SDS011;44930;52.878;6.168;2022-09-09T03:29:10;13.45;;;7.20;;
59147;SDS011;44930;52.878;6.168;2022-09-09T03:31:40;13.05;;;7.55;;
59147;SDS011;44930;52.878;6.168;2022-09-09T03:34:06;12.43;;;7.28;;
59147;SDS011;44930;52.878;6.168;2022-09-09T03:36:32;11.55;;;7.03;;
59147;SDS011;44930;52.878;6.168;2022-09-09T03:38:58;10.10;;;7.68;;
59147;SDS011;44930;52.878;6.168;2022-09-09T03:41:24;11.00;;;6.45;;
59147;SDS011;44930;52.878;6.168;2022-09-09T03:43:53;12.90;;;7.95;;
59147;SDS011;44930;52.878;6.168;2022-09-09T03:46:19;11.60;;;7.50;;
59147;SDS011;44930;52.878;6.168;2022-09-09T03:48:46;11.45;;;8.10;;
59147;SDS011;44930;52.878;6.168;2022-09-09T03:51:12;13.35;;;6.82;;
59147;SDS011;44930;52.878;6.168;2022-09-09T03:53:38;11.43;;;7.82;;
59147;SDS011;44930;52.878;6.168;2022-09-09T03:56:04;12.40;;;9.10;;
59147;SDS011;44930;52.878;6.168;2022-09-09T03:58:31;14.88;;;7.50;;
59147;SDS011;44930;52.878;6.168;2022-09-09T04:01:02;13.90;;;8.10;;
59147;SDS011;44930;52.878;6.168;2022-09-09T04:03:30;12.50;;;7.97;;
59147;SDS011;44930;52.878;6.168;2022-09-09T04:05:58;9.27;;;7.72;;
59147;SDS011;44930;52.878;6.168;2022-09-09T04:08:24;14.23;;;8.38;;
59147;SDS011;44930;52.878;6.168;2022-09-09T04:10:51;9.48;;;7.93;;
59147;SDS011;44930;52.878;6.168;2022-09-09T04:13:17;11.35;;;8.10;;
59147;SDS011;44930;52.878;6.168;2022-09-09T04:15:48;13.50;;;8.20;;
59147;SDS011;44930;52.878;6.168;2022-09-09T04:18:19;9.07;;;7.57;;
59147;SDS011;44930;52.878;6.168;2022-09-09T04:20:46;12.00;;;8.38;;
59147;SDS011;44930;52.878;6.168;2022-09-09T04:23:15;11.35;;;8.18;;
59147;SDS011;44930;52.878;6.168;2022-09-09T04:25:45;12.25;;;8.32;;
59147;SDS011;44930;52.878;6.168;2022-09-09T04:28:12;10.05;;;6.97;;
59147;SDS011;44930;52.878;6.168;2022-09-09T04:30:39;14.20;;;7.82;;
59147;SDS011;44930;52.878;6.168;2022-09-09T04:33:05;10.35;;;7.65;;
59147;SDS011;44930;52.878;6.168;2022-09-09T04:35:31;10.85;;;7.38;;
59147;SDS011;44930;52.878;6.168;2022-09-09T04:37:58;10.45;;;7.85;;
59147;SDS011;44930;52.878;6.168;2022-09-09T04:40:23;15.48;;;8.25;;
59147;SDS011;44930;52.878;6.168;2022-09-09T04:42:49;15.60;;;8.52;;
59147;SDS011;44930;52.878;6.168;2022-09-09T04:45:15;11.15;;;7.97;;
59147;SDS011;44930;52.878;6.168;2022-09-09T04:47:41;11.88;;;7.75;;
59147;SDS011;44930;52.878;6.168;2022-09-09T04:50:07;12.10;;;7.75;;
59147;SDS011;44930;52.878;6.168;2022-09-09T04:52:34;9.82;;;7.57;;
59147;SDS011;44930;52.878;6.168;2022-09-09T04:55:00;12.27;;;8.20;;
59147;SDS011;44930;52.878;6.168;2022-09-09T04:57:26;13.00;;;7.97;;
59147;SDS011;44930;52.878;6.168;2022-09-09T04:59:52;11.90;;;8.40;;
59147;SDS011;44930;52.878;6.168;2022-09-09T05:02:17;10.48;;;7.80;;
59147;SDS011;44930;52.878;6.168;2022-09-09T05:04:43;10.68;;;7.53;;
59147;SDS011;44930;52.878;6.168;2022-09-09T05:07:08;9.85;;;7.25;;
59147;SDS011;44930;52.878;6.168;2022-09-09T05:09:35;10.98;;;7.82;;
59147;SDS011;44930;52.878;6.168;2022-09-09T05:12:00;13.93;;;8.20;;
59147;SDS011;44930;52.878;6.168;2022-09-09T05:14:27;12.60;;;8.82;;
59147;SDS011;44930;52.878;6.168;2022-09-09T05:16:54;10.98;;;8.48;;
59147;SDS011;44930;52.878;6.168;2022-09-09T05:19:21;13.57;;;8.55;;
59147;SDS011;44930;52.878;6.168;2022-09-09T05:21:47;13.30;;;8.95;;
59147;SDS011;44930;52.878;6.168;2022-09-09T05:24:12;11.77;;;9.93;;
59147;SDS011;44930;52.878;6.168;2022-09-09T05:26:38;13.98;;;9.60;;
59147;SDS011;44930;52.878;6.168;2022-09-09T05:29:04;15.50;;;11.35;;
59147;SDS011;44930;52.878;6.168;2022-09-09T05:31:30;13.05;;;9.98;;
59147;SDS011;44930;52.878;6.168;2022-09-09T05:33:55;13.68;;;10.57;;
59147;SDS011;44930;52.878;6.168;2022-09-09T05:36:21;16.42;;;11.23;;
59147;SDS011;44930;52.878;6.168;2022-09-09T05:38:48;14.88;;;10.73;;
59147;SDS011;44930;52.878;6.168;2022-09-09T05:41:15;24.83;;;13.35;;
59147;SDS011;44930;52.878;6.168;2022-09-09T05:43:42;12.60;;;9.45;;
59147;SDS011;44930;52.878;6.168;2022-09-09T05:46:12;16.88;;;10.40;;
59147;SDS011;44930;52.878;6.168;2022-09-09T05:48:43;15.85;;;10.98;;
59147;SDS011;44930;52.878;6.168;2022-09-09T05:51:17;12.23;;;9.65;;
59147;SDS011;44930;52.878;6.168;2022-09-09T05:53:46;14.05;;;11.23;;
59147;SDS011;44930;52.878;6.168;2022-09-09T05:56:13;12.98;;;9.50;;
59147;SDS011;44930;52.878;6.168;2022-09-09T05:58:40;11.07;;;9.23;;
59147;SDS011;44930;52.878;6.168;2022-09-09T06:01:19;14.63;;;10.30;;
59147;SDS011;44930;52.878;6.168;2022-09-09T06:03:47;16.75;;;11.13;;
59147;SDS011;44930;52.878;6.168;2022-09-09T06:06:14;11.80;;;9.98;;
59147;SDS011;44930;52.878;6.168;2022-09-09T06:08:43;12.13;;;9.68;;
59147;SDS011;44930;52.878;6.168;2022-09-09T06:13:37;12.45;;;9.60;;
59147;SDS011;44930;52.878;6.168;2022-09-09T06:16:04;10.80;;;9.52;;
59147;SDS011;44930;52.878;6.168;2022-09-09T06:18:32;11.40;;;8.55;;
59147;SDS011;44930;52.878;6.168;2022-09-09T06:20:59;10.32;;;9.20;;
59147;SDS011;44930;52.878;6.168;2022-09-09T06:23:26;10.95;;;8.63;;
59147;SDS011;44930;52.878;6.168;2022-09-09T06:26:03;11.82;;;8.98;;
59147;SDS011;44930;52.878;6.168;2022-09-09T06:28:30;9.60;;;8.27;;
59147;SDS011;44930;52.878;6.168;2022-09-09T06:31:00;10.25;;;8.32;;
59147;SDS011;44930;52.878;6.168;2022-09-09T06:33:30;11.10;;;9.43;;
59147;SDS011;44930;52.878;6.168;2022-09-09T06:35:57;11.02;;;8.20;;
59147;SDS011;44930;52.878;6.168;2022-09-09T06:38:23;14.52;;;8.57;;
59147;SDS011;44930;52.878;6.168;2022-09-09T06:40:55;12.57;;;8.95;;
59147;SDS011;44930;52.878;6.168;2022-09-09T06:43:23;11.00;;;9.18;;
59147;SDS011;44930;52.878;6.168;2022-09-09T06:45:54;12.07;;;8.23;;
59147;SDS011;44930;52.878;6.168;2022-09-09T06:48:23;9.65;;;8.05;;
59147;SDS011;44930;52.878;6.168;2022-09-09T06:50:50;9.38;;;7.97;;
59147;SDS011;44930;52.878;6.168;2022-09-09T06:53:26;11.27;;;7.72;;
59147;SDS011;44930;52.878;6.168;2022-09-09T06:55:52;11.43;;;7.68;;
59147;SDS011;44930;52.878;6.168;2022-09-09T06:58:19;10.48;;;8.05;;
59147;SDS011;44930;52.878;6.168;2022-09-09T07:00:47;11.60;;;8.90;;
59147;SDS011;44930;52.878;6.168;2022-09-09T07:03:13;10.45;;;7.95;;
59147;SDS011;44930;52.878;6.168;2022-09-09T07:05:38;13.38;;;8.10;;
59147;SDS011;44930;52.878;6.168;2022-09-09T07:08:04;10.75;;;8.02;;
59147;SDS011;44930;52.878;6.168;2022-09-09T07:10:30;9.48;;;7.40;;
59147;SDS011;44930;52.878;6.168;2022-09-09T07:12:56;10.30;;;8.05;;
59147;SDS011;44930;52.878;6.168;2022-09-09T07:15:21;10.00;;;7.55;;
59147;SDS011;44930;52.878;6.168;2022-09-09T07:17:48;11.25;;;7.80;;
59147;SDS011;44930;52.878;6.168;2022-09-09T07:20:13;9.80;;;7.38;;
59147;SDS011;44930;52.878;6.168;2022-09-09T07:22:40;9.02;;;7.70;;
59147;SDS011;44930;52.878;6.168;2022-09-09T07:25:06;11.27;;;7.25;;
59147;SDS011;44930;52.878;6.168;2022-09-09T07:27:32;11.63;;;7.70;;
59147;SDS011;44930;52.878;6.168;2022-09-09T07:29:58;13.65;;;8.30;;
59147;SDS011;44930;52.878;6.168;2022-09-09T07:32:24;9.20;;;7.63;;
59147;SDS011;44930;52.878;6.168;2022-09-09T07:34:52;12.05;;;8.25;;
59147;SDS011;44930;52.878;6.168;2022-09-09T07:37:18;13.20;;;8.10;;
59147;SDS011;44930;52.878;6.168;2022-09-09T07:39:44;12.82;;;7.20;;
59147;SDS011;44930;52.878;6.168;2022-09-09T07:42:09;15.13;;;8.13;;
59147;SDS011;44930;52.878;6.168;2022-09-09T07:44:38;13.70;;;7.80;;
59147;SDS011;44930;52.878;6.168;2022-09-09T07:47:05;10.98;;;6.75;;
59147;SDS011;44930;52.878;6.168;2022-09-09T07:49:30;10.40;;;6.80;;
59147;SDS011;44930;52.878;6.168;2022-09-09T07:51:57;12.95;;;7.13;;
59147;SDS011;44930;52.878;6.168;2022-09-09T07:54:23;10.98;;;6.90;;
59147;SDS011;44930;52.878;6.168;2022-09-09T07:56:49;10.60;;;6.65;;
59147;SDS011;44930;52.878;6.168;2022-09-09T07:59:16;11.63;;;6.70;;
59147;SDS011;44930;52.878;6.168;2022-09-09T08:01:45;14.20;;;6.10;;
59147;SDS011;44930;52.878;6.168;2022-09-09T08:04:13;16.83;;;7.80;;
59147;SDS011;44930;52.878;6.168;2022-09-09T08:06:42;8.73;;;6.45;;
59147;SDS011;44930;52.878;6.168;2022-09-09T08:09:11;12.18;;;6.95;;
59147;SDS011;44930;52.878;6.168;2022-09-09T08:11:38;9.45;;;6.53;;
59147;SDS011;44930;52.878;6.168;2022-09-09T08:14:05;8.98;;;5.18;;
59147;SDS011;44930;52.878;6.168;2022-09-09T08:16:39;7.95;;;5.10;;
59147;SDS011;44930;52.878;6.168;2022-09-09T08:19:07;7.65;;;4.78;;
59147;SDS011;44930;52.878;6.168;2022-09-09T08:21:34;18.42;;;5.28;;
59147;SDS011;44930;52.878;6.168;2022-09-09T08:24:02;8.65;;;4.68;;
59147;SDS011;44930;52.878;6.168;2022-09-09T08:26:29;11.75;;;4.93;;
59147;SDS011;44930;52.878;6.168;2022-09-09T08:28:56;10.73;;;5.68;;
59147;SDS011;44930;52.878;6.168;2022-09-09T08:31:25;11.48;;;5.18;;
59147;SDS011;44930;52.878;6.168;2022-09-09T08:33:53;10.00;;;4.90;;
59147;SDS011;44930;52.878;6.168;2022-09-09T08:36:20;10.70;;;4.80;;
59147;SDS011;44930;52.878;6.168;2022-09-09T08:38:48;9.32;;;4.88;;
59147;SDS011;44930;52.878;6.168;2022-09-09T08:55:20;10.80;;;4.50;;
59147;SDS011;44930;52.878;6.168;2022-09-09T08:58:19;8.75;;;4.43;;
59147;SDS011;44930;52.878;6.168;2022-09-09T09:03:38;9.63;;;4.93;;
59147;SDS011;44930;52.878;6.168;2022-09-09T09:09:06;10.30;;;4.07;;
59147;SDS011;44930;52.878;6.168;2022-09-09T09:11:40;11.38;;;3.90;;
59147;SDS011;44930;52.878;6.168;2022-09-09T09:14:21;8.25;;;3.95;;
59147;SDS011;44930;52.878;6.168;2022-09-09T09:19:26;8.20;;;3.50;;
59147;SDS011;44930;52.878;6.168;2022-09-09T09:21:55;11.30;;;3.60;;
59147;SDS011;44930;52.878;6.168;2022-09-09T09:27:14;11.38;;;3.42;;
59147;SDS011;44930;52.878;6.168;2022-09-09T09:29:41;12.98;;;4.10;;
59147;SDS011;44930;52.878;6.168;2022-09-09T09:32:13;9.68;;;3.40;;
59147;SDS011;44930;52.878;6.168;2022-09-09T09:34:48;10.52;;;3.00;;
59147;SDS011;44930;52.878;6.168;2022-09-09T09:37:22;9.95;;;3.25;;
59147;SDS011;44930;52.878;6.168;2022-09-09T09:39:54;9.40;;;2.80;;
59147;SDS011;44930;52.878;6.168;2022-09-09T09:42:20;6.93;;;2.88;;
59147;SDS011;44930;52.878;6.168;2022-09-09T09:44:45;11.10;;;3.35;;
59147;SDS011;44930;52.878;6.168;2022-09-09T09:47:15;12.88;;;3.63;;
59147;SDS011;44930;52.878;6.168;2022-09-09T09:49:53;10.63;;;3.10;;
59147;SDS011;44930;52.878;6.168;2022-09-09T09:52:21;9.02;;;3.40;;
59147;SDS011;44930;52.878;6.168;2022-09-09T09:54:49;7.13;;;2.70;;
59147;SDS011;44930;52.878;6.168;2022-09-09T09:57:17;10.02;;;2.90;;
59147;SDS011;44930;52.878;6.168;2022-09-09T09:59:44;12.15;;;2.65;;
59147;SDS011;44930;52.878;6.168;2022-09-09T10:02:21;9.73;;;3.38;;
59147;SDS011;44930;52.878;6.168;2022-09-09T10:05:35;8.02;;;2.60;;
59147;SDS011;44930;52.878;6.168;2022-09-09T10:07:40;8.10;;;2.25;;
59147;SDS011;44930;52.878;6.168;2022-09-09T10:10:09;9.07;;;2.67;;
59147;SDS011;44930;52.878;6.168;2022-09-09T10:13:10;12.35;;;2.75;;
59147;SDS011;44930;52.878;6.168;2022-09-09T10:16:06;9.20;;;2.58;;
59147;SDS011;44930;52.878;6.168;2022-09-09T10:18:50;7.88;;;2.67;;
59147;SDS011;44930;52.878;6.168;2022-09-09T10:30:18;9.93;;;2.72;;
59147;SDS011;44930;52.878;6.168;2022-09-09T10:32:46;9.48;;;2.50;;
59147;SDS011;44930;52.878;6.168;2022-09-09T10:35:39;8.27;;;2.20;;
59147;SDS011;44930;52.878;6.168;2022-09-09T10:40:58;9.32;;;2.35;;
59147;SDS011;44930;52.878;6.168;2022-09-09T10:57:05;6.43;;;2.38;;
59147;SDS011;44930;52.878;6.168;2022-09-09T10:59:50;8.30;;;2.58;;
59147;SDS011;44930;52.878;6.168;2022-09-09T11:02:29;5.10;;;2.40;;
59147;SDS011;44930;52.878;6.168;2022-09-09T11:05:10;12.50;;;2.60;;
59147;SDS011;44930;52.878;6.168;2022-09-09T11:07:40;9.52;;;2.17;;
59147;SDS011;44930;52.878;6.168;2022-09-09T11:10:30;9.75;;;2.05;;
59147;SDS011;44930;52.878;6.168;2022-09-09T11:19:05;7.47;;;2.58;;
59147;SDS011;44930;52.878;6.168;2022-09-09T11:21:47;7.70;;;2.63;;
59147;SDS011;44930;52.878;6.168;2022-09-09T11:24:37;7.93;;;2.05;;
59147;SDS011;44930;52.878;6.168;2022-09-09T11:27:08;11.43;;;3.00;;
59147;SDS011;44930;52.878;6.168;2022-09-09T11:29:52;6.50;;;1.83;;
59147;SDS011;44930;52.878;6.168;2022-09-09T11:35:27;10.65;;;2.40;;
59147;SDS011;44930;52.878;6.168;2022-09-09T11:38:14;11.02;;;2.22;;
59147;SDS011;44930;52.878;6.168;2022-09-09T11:40:44;11.13;;;2.42;;
59147;SDS011;44930;52.878;6.168;2022-09-09T11:43:15;9.32;;;2.15;;
59147;SDS011;44930;52.878;6.168;2022-09-09T11:45:50;5.00;;;1.90;;
59147;SDS011;44930;52.878;6.168;2022-09-09T11:48:29;8.85;;;2.17;;
59147;SDS011;44930;52.878;6.168;2022-09-09T11:50:59;4.90;;;1.80;;
59147;SDS011;44930;52.878;6.168;2022-09-09T11:53:27;9.52;;;2.08;;
59147;SDS011;44930;52.878;6.168;2022-09-09T11:56:00;8.73;;;2.17;;
59147;SDS011;44930;52.878;6.168;2022-09-09T11:58:38;7.63;;;2.13;;
59147;SDS011;44930;52.878;6.168;2022-09-09T12:01:13;9.35;;;2.08;;
59147;SDS011;44930;52.878;6.168;2022-09-09T12:03:47;6.30;;;1.98;;
59147;SDS011;44930;52.878;6.168;2022-09-09T12:06:20;12.75;;;2.38;;
59147;SDS011;44930;52.878;6.168;2022-09-09T12:08:55;3.95;;;1.60;;
59147;SDS011;44930;52.878;6.168;2022-09-09T12:11:30;8.10;;;2.13;;
59147;SDS011;44930;52.878;6.168;2022-09-09T12:13:57;8.10;;;1.98;;
59147;SDS011;44930;52.878;6.168;2022-09-09T12:16:29;6.65;;;1.92;;
59147;SDS011;44930;52.878;6.168;2022-09-09T12:21:54;11.18;;;2.42;;
59147;SDS011;44930;52.878;6.168;2022-09-09T12:24:32;9.35;;;1.55;;
59147;SDS011;44930;52.878;6.168;2022-09-09T12:32:23;7.38;;;1.92;;
59147;SDS011;44930;52.878;6.168;2022-09-09T12:34:53;14.07;;;2.08;;
59147;SDS011;44930;52.878;6.168;2022-09-09T12:42:29;10.43;;;2.88;;
59147;SDS011;44930;52.878;6.168;2022-09-09T12:45:02;8.40;;;2.28;;
59147;SDS011;44930;52.878;6.168;2022-09-09T12:50:23;8.98;;;2.55;;
59147;SDS011;44930;52.878;6.168;2022-09-09T12:53:02;7.63;;;2.58;;
59147;SDS011;44930;52.878;6.168;2022-09-09T12:55:35;9.13;;;2.53;;
59147;SDS011;44930;52.878;6.168;2022-09-09T12:58:03;6.15;;;1.83;;
59147;SDS011;44930;52.878;6.168;2022-09-09T13:00:31;6.63;;;1.67;;
59147;SDS011;44930;52.878;6.168;2022-09-09T13:02:59;6.35;;;1.58;;
59147;SDS011;44930;52.878;6.168;2022-09-09T13:05:37;7.40;;;2.08;;
59147;SDS011;44930;52.878;6.168;2022-09-09T13:08:08;5.45;;;1.70;;
59147;SDS011;44930;52.878;6.168;2022-09-09T13:10:57;7.05;;;2.40;;
59147;SDS011;44930;52.878;6.168;2022-09-09T13:13:34;8.23;;;2.55;;
59147;SDS011;44930;52.878;6.168;2022-09-09T13:16:02;5.18;;;1.73;;
59147;SDS011;44930;52.878;6.168;2022-09-09T13:18:33;5.30;;;1.90;;
59147;SDS011;44930;52.878;6.168;2022-09-09T13:21:00;7.32;;;2.13;;
59147;SDS011;44930;52.878;6.168;2022-09-09T13:23:27;5.53;;;1.35;;
59147;SDS011;44930;52.878;6.168;2022-09-09T13:26:00;5.90;;;2.20;;
59147;SDS011;44930;52.878;6.168;2022-09-09T13:28:48;5.38;;;1.75;;
59147;SDS011;44930;52.878;6.168;2022-09-09T13:31:24;5.80;;;2.03;;
59147;SDS011;44930;52.878;6.168;2022-09-09T13:33:58;5.35;;;1.83;;
59147;SDS011;44930;52.878;6.168;2022-09-09T13:36:30;7.43;;;1.98;;
59147;SDS011;44930;52.878;6.168;2022-09-09T13:38:58;4.20;;;1.63;;
59147;SDS011;44930;52.878;6.168;2022-09-09T13:41:35;8.05;;;2.40;;
59147;SDS011;44930;52.878;6.168;2022-09-09T13:44:14;6.10;;;1.60;;
59147;SDS011;44930;52.878;6.168;2022-09-09T13:46:45;4.30;;;1.20;;
59147;SDS011;44930;52.878;6.168;2022-09-09T13:51:49;3.70;;;1.45;;
59147;SDS011;44930;52.878;6.168;2022-09-09T13:54:18;4.80;;;1.60;;
59147;SDS011;44930;52.878;6.168;2022-09-09T13:56:45;5.32;;;1.55;;
59147;SDS011;44930;52.878;6.168;2022-09-09T13:59:11;4.97;;;1.60;;
59147;SDS011;44930;52.878;6.168;2022-09-09T14:01:39;5.85;;;1.60;;
59147;SDS011;44930;52.878;6.168;2022-09-09T14:04:05;3.72;;;1.40;;
59147;SDS011;44930;52.878;6.168;2022-09-09T14:06:32;6.25;;;1.60;;
59147;SDS011;44930;52.878;6.168;2022-09-09T14:09:00;4.32;;;1.50;;
59147;SDS011;44930;52.878;6.168;2022-09-09T14:11:25;7.75;;;2.00;;
59147;SDS011;44930;52.878;6.168;2022-09-09T14:13:51;5.90;;;2.08;;
59147;SDS011;44930;52.878;6.168;2022-09-09T14:16:17;6.45;;;2.10;;
59147;SDS011;44930;52.878;6.168;2022-09-09T14:18:43;6.85;;;1.55;;
59147;SDS011;44930;52.878;6.168;2022-09-09T14:21:10;6.20;;;1.50;;
59147;SDS011;44930;52.878;6.168;2022-09-09T14:23:36;4.05;;;2.03;;
59147;SDS011;44930;52.878;6.168;2022-09-09T14:26:03;4.95;;;1.45;;
59147;SDS011;44930;52.878;6.168;2022-09-09T14:28:32;7.10;;;1.52;;
59147;SDS011;44930;52.878;6.168;2022-09-09T14:30:59;5.10;;;1.52;;
59147;SDS011;44930;52.878;6.168;2022-09-09T14:33:26;3.72;;;1.20;;
59147;SDS011;44930;52.878;6.168;2022-09-09T14:35:56;3.67;;;1.30;;
59147;SDS011;44930;52.878;6.168;2022-09-09T14:38:22;3.20;;;1.20;;
59147;SDS011;44930;52.878;6.168;2022-09-09T14:40:48;8.95;;;1.58;;
59147;SDS011;44930;52.878;6.168;2022-09-09T14:43:14;6.65;;;1.77;;
59147;SDS011;44930;52.878;6.168;2022-09-09T14:45:39;4.13;;;1.15;;
59147;SDS011;44930;52.878;6.168;2022-09-09T14:48:05;7.85;;;1.25;;
59147;SDS011;44930;52.878;6.168;2022-09-09T14:50:31;6.15;;;1.63;;
59147;SDS011;44930;52.878;6.168;2022-09-09T14:52:56;5.00;;;2.08;;
59147;SDS011;44930;52.878;6.168;2022-09-09T14:55:22;5.22;;;1.40;;
59147;SDS011;44930;52.878;6.168;2022-09-09T14:57:48;6.25;;;1.58;;
59147;SDS011;44930;52.878;6.168;2022-09-09T15:00:14;5.70;;;1.50;;
59147;SDS011;44930;52.878;6.168;2022-09-09T15:02:39;2.95;;;1.20;;
59147;SDS011;44930;52.878;6.168;2022-09-09T15:05:05;3.88;;;1.65;;
59147;SDS011;44930;52.878;6.168;2022-09-09T15:07:31;3.67;;;1.65;;
59147;SDS011;44930;52.878;6.168;2022-09-09T15:09:57;2.67;;;1.40;;
59147;SDS011;44930;52.878;6.168;2022-09-09T15:12:23;9.13;;;1.55;;
59147;SDS011;44930;52.878;6.168;2022-09-09T15:14:49;5.72;;;1.73;;
59147;SDS011;44930;52.878;6.168;2022-09-09T15:17:15;4.40;;;1.42;;
59147;SDS011;44930;52.878;6.168;2022-09-09T15:19:41;4.18;;;1.35;;
59147;SDS011;44930;52.878;6.168;2022-09-09T15:22:07;6.22;;;1.10;;
59147;SDS011;44930;52.878;6.168;2022-09-09T15:24:33;8.38;;;1.40;;
59147;SDS011;44930;52.878;6.168;2022-09-09T15:27:00;4.97;;;1.42;;
59147;SDS011;44930;52.878;6.168;2022-09-09T15:29:26;5.00;;;1.60;;
59147;SDS011;44930;52.878;6.168;2022-09-09T15:31:55;5.70;;;1.70;;
59147;SDS011;44930;52.878;6.168;2022-09-09T15:34:21;4.40;;;1.63;;
59147;SDS011;44930;52.878;6.168;2022-09-09T15:36:47;4.32;;;1.30;;
59147;SDS011;44930;52.878;6.168;2022-09-09T15:39:14;4.80;;;1.20;;
59147;SDS011;44930;52.878;6.168;2022-09-09T15:41:41;5.60;;;1.52;;
59147;SDS011;44930;52.878;6.168;2022-09-09T15:44:10;5.50;;;1.45;;
59147;SDS011;44930;52.878;6.168;2022-09-09T15:46:41;6.15;;;1.45;;
59147;SDS011;44930;52.878;6.168;2022-09-09T15:49:10;6.43;;;1.63;;
59147;SDS011;44930;52.878;6.168;2022-09-09T15:51:45;2.90;;;1.40;;
59147;SDS011;44930;52.878;6.168;2022-09-09T15:54:13;3.53;;;1.30;;
59147;SDS011;44930;52.878;6.168;2022-09-09T15:56:41;5.57;;;1.40;;
59147;SDS011;44930;52.878;6.168;2022-09-09T15:59:07;4.13;;;1.42;;
59147;SDS011;44930;52.878;6.168;2022-09-09T16:01:33;6.60;;;1.40;;
59147;SDS011;44930;52.878;6.168;2022-09-09T16:04:00;5.40;;;1.65;;
59147;SDS011;44930;52.878;6.168;2022-09-09T16:06:27;6.60;;;1.20;;
59147;SDS011;44930;52.878;6.168;2022-09-09T16:08:53;4.80;;;1.38;;
59147;SDS011;44930;52.878;6.168;2022-09-09T16:11:25;5.50;;;1.30;;
59147;SDS011;44930;52.878;6.168;2022-09-09T16:13:52;2.72;;;1.08;;
59147;SDS011;44930;52.878;6.168;2022-09-09T16:16:21;7.20;;;1.92;;
59147;SDS011;44930;52.878;6.168;2022-09-09T16:18:53;5.28;;;2.15;;
59147;SDS011;44930;52.878;6.168;2022-09-09T16:23:51;15.27;;;6.80;;
59147;SDS011;44930;52.878;6.168;2022-09-09T16:26:20;7.80;;;2.72;;
59147;SDS011;44930;52.878;6.168;2022-09-09T16:28:46;9.32;;;3.95;;
59147;SDS011;44930;52.878;6.168;2022-09-09T16:31:14;5.45;;;1.70;;
59147;SDS011;44930;52.878;6.168;2022-09-09T16:33:42;5.03;;;1.70;;
59147;SDS011;44930;52.878;6.168;2022-09-09T16:36:12;5.55;;;1.88;;
59147;SDS011;44930;52.878;6.168;2022-09-09T16:38:39;4.55;;;1.80;;
59147;SDS011;44930;52.878;6.168;2022-09-09T16:41:05;5.35;;;1.52;;
59147;SDS011;44930;52.878;6.168;2022-09-09T16:43:33;3.30;;;2.15;;
59147;SDS011;44930;52.878;6.168;2022-09-09T16:46:00;6.15;;;2.20;;
59147;SDS011;44930;52.878;6.168;2022-09-09T16:48:33;4.85;;;2.20;;
59147;SDS011;44930;52.878;6.168;2022-09-09T16:51:03;8.90;;;3.90;;
59147;SDS011;44930;52.878;6.168;2022-09-09T16:53:31;3.95;;;1.85;;
59147;SDS011;44930;52.878;6.168;2022-09-09T16:55:57;4.82;;;2.20;;
59147;SDS011;44930;52.878;6.168;2022-09-09T16:58:23;4.80;;;2.30;;
59147;SDS011;44930;52.878;6.168;2022-09-09T17:00:49;4.93;;;1.85;;
59147;SDS011;44930;52.878;6.168;2022-09-09T17:03:16;7.20;;;2.15;;
59147;SDS011;44930;52.878;6.168;2022-09-09T17:05:41;8.88;;;2.28;;